Terminal Aerodrome Forecast
Issued by NWS Brownsville, TX

Home | Current Version | Previous Version | Text Only | Print | Product List | Glossary On
Versions: 1 2 3 4 5 6 7 8 9 10 11 12 13 14 15 16 17 18 19 20
972
FTUS44 KBRO 281302 AAA
TAFMFE
TAF AMD
KMFE 281302Z 2813/2912 14016G22KT 6SM HZ BKN014 OVC018
     FM281500 15015G22KT P6SM SCT030
     FM281700 14022G30KT P6SM SCT050
     FM290100 14018G25KT P6SM SCT025=

USA.gov is the U.S. government's official web portal to all federal, state and local government web resources and services.